createdAt,value
2023-11-20T00:01:26.172Z,8.90
2023-11-20T00:03:54.881Z,7.90
2023-11-20T00:06:23.023Z,8.30
2023-11-20T00:08:51.025Z,10.10
2023-11-20T00:11:19.046Z,8.00
2023-11-20T00:13:47.252Z,9.30
2023-11-20T00:16:15.358Z,8.30
2023-11-20T00:18:43.394Z,7.50
2023-11-20T00:21:11.556Z,10.00
2023-11-20T00:23:40.171Z,9.10
2023-11-20T00:26:15.658Z,8.50
2023-11-20T00:28:43.759Z,10.90
2023-11-20T00:31:18.901Z,8.20
2023-11-20T00:33:46.872Z,9.10
2023-11-20T00:36:14.885Z,9.80
2023-11-20T00:38:43.142Z,8.40
2023-11-20T00:41:11.197Z,9.00
2023-11-20T00:43:40.744Z,8.90
2023-11-20T00:46:09.108Z,7.00
2023-11-20T00:48:37.280Z,8.60
2023-11-20T00:51:05.612Z,8.90
2023-11-20T00:53:33.549Z,10.10
2023-11-20T00:56:01.528Z,9.20
2023-11-20T00:58:29.536Z,9.90
2023-11-20T01:00:59.480Z,8.60
2023-11-20T01:03:28.620Z,8.30
2023-11-20T01:05:56.922Z,9.50
2023-11-20T01:08:24.913Z,9.40
2023-11-20T01:10:52.920Z,7.80
2023-11-20T01:13:20.841Z,9.70
2023-11-20T01:15:48.909Z,9.10
2023-11-20T01:18:17.437Z,9.40
2023-11-20T01:20:46.157Z,8.80
2023-11-20T01:23:14.078Z,9.90
2023-11-20T01:25:42.211Z,9.00
2023-11-20T01:28:10.372Z,8.90
2023-11-20T01:30:38.365Z,8.70
2023-11-20T01:33:06.423Z,8.90
2023-11-20T01:35:34.419Z,9.40
2023-11-20T01:38:02.495Z,8.90
2023-11-20T01:40:30.478Z,9.30
2023-11-20T01:42:58.579Z,8.70
2023-11-20T01:45:26.544Z,9.30
2023-11-20T01:47:54.694Z,9.90
2023-11-20T01:50:22.794Z,8.30
2023-11-20T01:52:51.925Z,7.90
2023-11-20T01:55:21.513Z,9.80
2023-11-20T01:57:51.672Z,10.10
2023-11-20T02:00:20.891Z,9.70
2023-11-20T02:02:51.466Z,8.70
2023-11-20T02:05:20.893Z,10.30
2023-11-20T02:07:48.902Z,9.30
2023-11-20T02:10:19.028Z,10.60
2023-11-20T02:12:47.387Z,9.40
2023-11-20T02:15:15.732Z,8.10
2023-11-20T02:17:43.800Z,9.70
2023-11-20T02:20:12.114Z,8.40
2023-11-20T02:22:40.141Z,9.40
2023-11-20T02:25:09.035Z,9.20
2023-11-20T02:28:17.102Z,8.80
2023-11-20T02:30:45.394Z,9.10
2023-11-20T02:33:13.635Z,10.40
2023-11-20T02:35:41.728Z,9.90
2023-11-20T02:38:09.695Z,9.70
2023-11-20T02:40:38.022Z,9.10
2023-11-20T02:43:06.879Z,9.00
2023-11-20T02:45:36.533Z,9.10
2023-11-20T02:48:05.362Z,7.60
2023-11-20T02:50:35.479Z,9.10
2023-11-20T02:53:03.505Z,9.80
2023-11-20T02:55:31.875Z,7.50
2023-11-20T02:58:01.489Z,9.90
2023-11-20T03:00:29.512Z,10.70
2023-11-20T03:02:57.550Z,7.10
2023-11-20T03:05:25.715Z,9.40
2023-11-20T03:07:53.736Z,8.40
2023-11-20T03:10:22.273Z,9.90
2023-11-20T03:12:50.315Z,10.00
2023-11-20T03:15:18.346Z,10.10
2023-11-20T03:17:46.381Z,9.90
2023-11-20T03:20:14.564Z,8.30
2023-11-20T03:22:42.619Z,9.30
2023-11-20T03:25:10.957Z,9.60
2023-11-20T03:27:40.509Z,8.30
2023-11-20T03:30:10.509Z,8.40
2023-11-20T03:32:38.541Z,8.20
2023-11-20T03:35:06.897Z,10.00
2023-11-20T03:37:35.575Z,8.90
2023-11-20T03:40:05.280Z,9.70
2023-11-20T03:42:33.339Z,8.20
2023-11-20T03:45:02.285Z,8.80
2023-11-20T03:47:30.262Z,8.90
2023-11-20T03:49:58.245Z,9.20
2023-11-20T03:52:27.666Z,7.00
2023-11-20T03:54:55.780Z,7.80
2023-11-20T03:57:23.999Z,9.00
2023-11-20T03:59:52.001Z,7.00
2023-11-20T04:02:20.354Z,7.60
2023-11-20T04:04:48.405Z,7.50
2023-11-20T04:07:16.453Z,9.50
2023-11-20T04:09:44.440Z,8.00
2023-11-20T04:12:12.493Z,9.00
2023-11-20T04:14:40.518Z,9.90
2023-11-20T04:17:09.112Z,8.70
2023-11-20T04:19:37.567Z,8.60
2023-11-20T04:22:08.736Z,8.80
2023-11-20T04:24:37.046Z,8.90
2023-11-20T04:27:05.372Z,9.10
2023-11-20T04:29:33.238Z,8.50
2023-11-20T04:32:01.240Z,9.10
2023-11-20T04:34:29.257Z,8.70
2023-11-20T04:36:57.285Z,9.80
2023-11-20T04:39:25.235Z,8.00
2023-11-20T04:41:53.271Z,9.20
2023-11-20T04:44:21.269Z,8.30
2023-11-20T04:46:49.246Z,9.60
2023-11-20T04:49:17.217Z,8.70
2023-11-20T04:51:45.280Z,9.40
2023-11-20T04:54:13.352Z,7.10
2023-11-20T04:56:41.450Z,9.00
2023-11-20T04:59:10.469Z,7.20
2023-11-20T05:01:38.665Z,8.40
2023-11-20T05:04:07.085Z,9.20
2023-11-20T05:06:35.099Z,8.60
2023-11-20T05:09:03.422Z,8.50
2023-11-20T05:11:31.459Z,6.90
2023-11-20T05:14:00.834Z,9.00
2023-11-20T05:16:30.141Z,8.90
2023-11-20T05:18:58.306Z,9.20
2023-11-20T05:21:26.310Z,8.80
2023-11-20T05:23:54.284Z,7.00
2023-11-20T05:26:22.415Z,7.90
2023-11-20T05:28:52.403Z,8.70
2023-11-20T05:31:20.446Z,8.20
2023-11-20T05:33:48.962Z,9.50
2023-11-20T05:36:17.084Z,8.60
2023-11-20T05:38:45.080Z,8.80
2023-11-20T05:41:13.196Z,9.70
2023-11-20T05:43:41.905Z,9.20
2023-11-20T05:46:09.977Z,7.30
2023-11-20T05:48:38.529Z,8.70
2023-11-20T05:51:06.636Z,7.20
2023-11-20T05:53:34.733Z,8.60
2023-11-20T05:56:03.233Z,9.10
2023-11-20T05:58:31.369Z,9.10
2023-11-20T06:00:59.840Z,8.60
2023-11-20T06:03:27.996Z,9.90
2023-11-20T06:05:56.056Z,8.60
2023-11-20T06:08:24.586Z,7.90
2023-11-20T06:10:52.508Z,8.40
2023-11-20T06:13:20.632Z,9.20
2023-11-20T06:15:48.638Z,7.20
2023-11-20T06:18:16.661Z,9.90
2023-11-20T06:20:44.883Z,8.30
2023-11-20T06:23:13.668Z,8.80
2023-11-20T06:25:41.628Z,6.50
2023-11-20T06:28:09.593Z,8.50
2023-11-20T06:30:37.802Z,9.00
2023-11-20T06:33:06.258Z,8.80
2023-11-20T06:35:34.216Z,9.70
2023-11-20T06:38:02.156Z,7.10
2023-11-20T06:40:30.311Z,9.40
2023-11-20T06:42:58.748Z,10.70
2023-11-20T06:45:26.717Z,10.50
2023-11-20T06:47:54.704Z,11.00
2023-11-20T06:50:22.780Z,6.80
2023-11-20T06:52:53.380Z,9.80
2023-11-20T06:55:22.849Z,9.10
2023-11-20T06:57:51.127Z,8.60
2023-11-20T07:00:20.002Z,9.10
2023-11-20T07:02:48.649Z,9.60
2023-11-20T07:05:17.856Z,9.70
2023-11-20T07:07:55.117Z,8.60
2023-11-20T07:10:24.743Z,10.40
2023-11-20T07:12:58.052Z,9.90
2023-11-20T07:15:26.255Z,9.30
2023-11-20T07:17:54.360Z,9.00
2023-11-20T07:20:23.047Z,8.20
2023-11-20T07:22:51.262Z,9.00
2023-11-20T07:25:19.309Z,8.70
2023-11-20T07:27:47.315Z,8.80
2023-11-20T07:30:16.172Z,9.50
2023-11-20T07:32:45.235Z,10.10
2023-11-20T07:35:14.707Z,8.30
2023-11-20T07:37:43.588Z,9.60
2023-11-20T07:40:13.235Z,9.10
2023-11-20T07:42:42.223Z,9.30
2023-11-20T07:45:12.462Z,9.00
2023-11-20T07:47:41.801Z,8.90
2023-11-20T07:50:12.259Z,7.70
2023-11-20T07:52:40.571Z,8.60
2023-11-20T07:55:09.759Z,8.40
2023-11-20T07:57:38.131Z,6.60
2023-11-20T08:00:07.200Z,8.60
2023-11-20T08:02:35.441Z,8.70
2023-11-20T08:05:06.627Z,8.80
2023-11-20T08:07:35.000Z,6.80
2023-11-20T08:10:06.610Z,8.50
2023-11-20T08:12:35.986Z,7.20
2023-11-20T08:15:07.044Z,7.20
2023-11-20T08:17:36.028Z,7.70
2023-11-20T08:20:07.777Z,7.20
2023-11-20T08:22:37.221Z,7.40
2023-11-20T08:25:05.897Z,9.20
2023-11-20T08:27:33.957Z,7.50
2023-11-20T08:30:02.363Z,6.60
2023-11-20T08:32:30.389Z,7.30
2023-11-20T08:34:58.588Z,7.30
2023-11-20T08:37:26.618Z,7.70
2023-11-20T08:39:54.542Z,6.90
2023-11-20T08:42:23.677Z,7.50
2023-11-20T08:44:51.683Z,7.50
2023-11-20T08:47:19.803Z,7.30
2023-11-20T08:49:47.980Z,7.90
2023-11-20T08:52:16.416Z,7.10
2023-11-20T08:54:44.495Z,7.80
2023-11-20T08:57:12.474Z,7.80
2023-11-20T08:59:40.505Z,7.20
2023-11-20T09:02:08.549Z,8.30
2023-11-20T09:04:36.577Z,7.40
2023-11-20T09:07:04.957Z,7.30
2023-11-20T09:09:32.956Z,7.30
2023-11-20T09:12:02.203Z,7.10
2023-11-20T09:14:30.380Z,6.30
2023-11-20T09:16:59.000Z,6.70
2023-11-20T09:19:27.660Z,8.40
2023-11-20T09:21:55.677Z,8.90
2023-11-20T09:24:23.692Z,7.60
2023-11-20T09:26:51.642Z,9.50
2023-11-20T09:29:19.709Z,7.30
2023-11-20T09:31:49.353Z,7.60
2023-11-20T09:34:20.107Z,8.00
2023-11-20T09:36:48.202Z,8.20
2023-11-20T09:39:16.243Z,7.70
2023-11-20T09:41:44.535Z,9.60
2023-11-20T09:44:13.807Z,8.60
2023-11-20T09:46:45.884Z,6.40
2023-11-20T09:49:24.150Z,8.40
2023-11-20T09:51:58.057Z,8.90
2023-11-20T09:54:26.612Z,8.60
2023-11-20T09:56:55.101Z,7.90
2023-11-20T09:59:23.148Z,8.10
2023-11-20T10:01:53.230Z,8.10
2023-11-20T10:04:25.553Z,8.00
2023-11-20T10:06:56.194Z,7.80
2023-11-20T10:09:25.341Z,8.10
2023-11-20T10:11:57.976Z,6.80
2023-11-20T10:14:25.952Z,5.80
2023-11-20T10:16:55.083Z,8.70
2023-11-20T10:19:23.487Z,6.60
2023-11-20T10:21:52.641Z,8.50
2023-11-20T10:24:20.687Z,8.10
2023-11-20T10:26:48.813Z,8.40
2023-11-20T10:29:17.430Z,8.40
2023-11-20T10:31:48.144Z,7.60
2023-11-20T10:34:19.192Z,8.90
2023-11-20T10:37:06.006Z,7.80
2023-11-20T10:39:34.247Z,6.00
2023-11-20T10:42:03.071Z,5.80
2023-11-20T10:44:33.061Z,7.90
2023-11-20T10:47:01.286Z,6.50
2023-11-20T10:49:37.059Z,6.70
2023-11-20T10:52:16.931Z,7.80
2023-11-20T10:54:49.725Z,6.30
2023-11-20T10:57:19.815Z,7.80
2023-11-20T10:59:48.676Z,7.80
2023-11-20T11:02:21.591Z,8.10
2023-11-20T11:04:55.922Z,5.90
2023-11-20T11:07:26.281Z,7.80
2023-11-20T11:09:54.807Z,7.70
2023-11-20T11:12:33.142Z,6.60
2023-11-20T11:15:01.189Z,7.30
2023-11-20T11:17:34.901Z,8.20
2023-11-20T11:20:11.209Z,7.40
2023-11-20T11:22:45.286Z,7.50
2023-11-20T11:25:15.464Z,7.70
2023-11-20T11:27:58.070Z,7.90
2023-11-20T11:30:32.269Z,7.50
2023-11-20T11:33:34.034Z,7.50
2023-11-20T11:36:10.326Z,8.10
2023-11-20T11:38:42.457Z,7.90
2023-11-20T11:41:39.066Z,8.20
2023-11-20T11:44:23.433Z,8.40
2023-11-20T11:46:52.082Z,7.90
2023-11-20T11:49:24.624Z,6.40
2023-11-20T11:52:05.148Z,7.80
2023-11-20T11:54:33.706Z,6.30
2023-11-20T11:57:14.495Z,7.30
2023-11-20T11:59:47.067Z,7.50
2023-11-20T12:02:20.015Z,5.70
2023-11-20T12:04:51.321Z,8.30
2023-11-20T12:07:37.879Z,8.10
2023-11-20T12:10:13.502Z,8.30
2023-11-20T12:12:49.571Z,8.40
2023-11-20T12:15:37.501Z,7.70
2023-11-20T12:18:22.609Z,6.90
2023-11-20T12:20:56.765Z,8.30
2023-11-20T12:23:24.666Z,7.40
2023-11-20T12:25:57.624Z,6.70
2023-11-20T12:28:29.115Z,7.50
2023-11-20T12:30:57.086Z,5.90
2023-11-20T12:33:25.077Z,7.70
2023-11-20T12:35:56.936Z,8.00
2023-11-20T12:38:25.612Z,7.90
2023-11-20T12:40:55.735Z,7.80
2023-11-20T12:43:25.680Z,8.40
2023-11-20T12:45:53.969Z,8.20
2023-11-20T12:48:22.209Z,9.40
2023-11-20T12:50:51.124Z,8.10
2023-11-20T12:53:21.125Z,8.90
2023-11-20T12:55:54.523Z,8.20
2023-11-20T12:58:23.279Z,7.40
2023-11-20T13:00:54.490Z,7.90
2023-11-20T13:03:23.382Z,8.90
2023-11-20T13:05:54.932Z,10.20
2023-11-20T13:08:25.253Z,8.00
2023-11-20T13:11:02.979Z,10.30
2023-11-20T13:13:36.625Z,9.30
2023-11-20T13:16:17.490Z,9.10
2023-11-20T13:18:51.379Z,8.60
2023-11-20T13:21:27.662Z,7.80
2023-11-20T13:24:01.193Z,7.70
2023-11-20T13:26:29.889Z,7.10
2023-11-20T13:28:59.201Z,7.00
2023-11-20T13:31:36.152Z,6.10
2023-11-20T13:34:08.391Z,7.00
2023-11-20T13:36:39.396Z,8.30
2023-11-20T13:39:09.605Z,6.00
2023-11-20T13:41:38.459Z,8.10
2023-11-20T13:44:06.810Z,7.80
2023-11-20T13:46:38.403Z,7.80
2023-11-20T13:49:06.905Z,7.70
2023-11-20T13:51:35.027Z,7.30
2023-11-20T13:54:02.948Z,8.10
2023-11-20T13:56:31.559Z,6.50
2023-11-20T13:59:00.721Z,5.90
2023-11-20T14:01:29.335Z,6.30
2023-11-20T14:03:58.994Z,7.80
2023-11-20T14:06:27.189Z,6.80
2023-11-20T14:08:56.759Z,8.30
2023-11-20T14:11:24.796Z,8.90
2023-11-20T14:13:53.748Z,7.00
2023-11-20T14:16:24.541Z,7.70
2023-11-20T14:18:53.107Z,8.10
2023-11-20T14:21:21.922Z,8.30
2023-11-20T14:23:50.132Z,10.10
2023-11-20T14:26:29.732Z,10.90
2023-11-20T14:29:04.507Z,9.70
2023-11-20T14:31:32.915Z,10.70
2023-11-20T14:34:01.590Z,10.90
2023-11-20T14:36:30.057Z,8.50
2023-11-20T14:38:59.656Z,11.00
2023-11-20T14:41:28.336Z,10.90
2023-11-20T14:43:56.377Z,10.10
2023-11-20T14:46:24.401Z,10.00
2023-11-20T14:48:52.533Z,9.70
2023-11-20T14:51:24.153Z,10.70
2023-11-20T14:53:54.888Z,10.50
2023-11-20T14:56:23.316Z,10.00
2023-11-20T14:58:51.841Z,11.00
2023-11-20T15:01:21.370Z,9.30
2023-11-20T15:03:49.993Z,8.90
2023-11-20T15:06:19.239Z,9.90
2023-11-20T15:08:47.203Z,9.60
2023-11-20T15:11:16.324Z,8.10
2023-11-20T15:13:44.996Z,10.20
2023-11-20T15:16:13.321Z,11.10
2023-11-20T15:18:41.459Z,9.60
2023-11-20T15:21:09.500Z,9.70
2023-11-20T15:23:37.498Z,8.00
2023-11-20T15:26:05.766Z,9.00
2023-11-20T15:28:33.845Z,9.20
2023-11-20T15:31:02.353Z,10.00
2023-11-20T15:33:30.368Z,10.60
2023-11-20T15:35:58.376Z,8.40
2023-11-20T15:38:26.329Z,9.10
2023-11-20T15:40:54.654Z,9.10
2023-11-20T15:43:22.722Z,9.30
2023-11-20T15:45:54.365Z,6.70
2023-11-20T15:48:24.430Z,8.30
2023-11-20T15:50:55.618Z,10.00
2023-11-20T15:53:23.977Z,9.50
2023-11-20T15:55:52.095Z,10.70
2023-11-20T15:58:21.783Z,9.50
2023-11-20T16:00:51.044Z,8.50
2023-11-20T16:03:20.434Z,8.90
2023-11-20T16:05:49.367Z,9.60
2023-11-20T16:08:18.158Z,8.30
2023-11-20T16:10:48.672Z,8.00
2023-11-20T16:13:17.900Z,8.70
2023-11-20T16:15:47.152Z,9.50
2023-11-20T16:18:16.472Z,8.90
2023-11-20T16:20:48.649Z,9.30
2023-11-20T16:23:17.713Z,9.20
2023-11-20T16:25:48.574Z,9.70
2023-11-20T16:28:17.297Z,11.30
2023-11-20T16:30:49.960Z,10.50
2023-11-20T16:33:18.085Z,9.80
2023-11-20T16:35:46.027Z,8.90
2023-11-20T16:38:14.741Z,6.30
2023-11-20T16:40:49.461Z,8.60
2023-11-20T16:43:18.683Z,6.70
2023-11-20T16:45:50.273Z,8.70
2023-11-20T16:48:18.993Z,8.20
2023-11-20T16:50:55.302Z,9.30
2023-11-20T16:53:23.840Z,5.90
2023-11-20T16:56:03.616Z,8.10
2023-11-20T16:58:34.051Z,8.10
2023-11-20T17:01:04.057Z,6.50
2023-11-20T17:03:34.839Z,7.60
2023-11-20T17:06:05.976Z,5.70
2023-11-20T17:08:36.706Z,6.40
2023-11-20T17:11:05.748Z,7.10
2023-11-20T17:13:33.959Z,7.30
2023-11-20T17:16:02.528Z,7.70
2023-11-20T17:18:30.821Z,8.40
2023-11-20T17:20:59.185Z,7.50
2023-11-20T17:23:27.301Z,8.10
2023-11-20T17:25:55.284Z,7.70
2023-11-20T17:28:23.602Z,7.30
2023-11-20T17:30:51.704Z,7.10
2023-11-20T17:33:20.315Z,6.90
2023-11-20T17:35:48.495Z,7.30
2023-11-20T17:38:16.613Z,7.50
2023-11-20T17:40:44.947Z,7.50
2023-11-20T17:43:13.682Z,7.90
2023-11-20T17:45:43.410Z,7.10
2023-11-20T17:48:14.384Z,7.50
2023-11-20T17:50:42.478Z,7.70
2023-11-20T17:53:10.890Z,8.10
2023-11-20T17:55:40.040Z,6.00
2023-11-20T17:58:08.398Z,7.00
2023-11-20T18:00:36.825Z,7.20
2023-11-20T18:03:08.139Z,7.80
2023-11-20T18:05:41.834Z,8.60
2023-11-20T18:08:30.024Z,7.80
2023-11-20T18:10:58.148Z,5.50
2023-11-20T18:13:26.323Z,5.80
2023-11-20T18:16:10.936Z,6.50
2023-11-20T18:18:39.138Z,7.40
2023-11-20T18:21:08.417Z,8.20
2023-11-20T18:23:36.684Z,7.40
2023-11-20T18:26:05.836Z,7.70
2023-11-20T18:28:34.733Z,7.60
2023-11-20T18:31:04.737Z,8.00
2023-11-20T18:33:34.363Z,8.40
2023-11-20T18:36:04.566Z,8.90
2023-11-20T18:38:32.666Z,8.20
2023-11-20T18:41:01.444Z,9.00
2023-11-20T18:43:30.678Z,7.70
2023-11-20T18:45:59.437Z,8.00
2023-11-20T18:48:28.272Z,6.70
2023-11-20T18:50:57.003Z,7.70
2023-11-20T18:53:25.048Z,8.20
2023-11-20T18:55:53.362Z,7.20
2023-11-20T18:58:22.223Z,6.40
2023-11-20T19:00:50.383Z,7.80
2023-11-20T19:03:18.656Z,8.60
2023-11-20T19:05:46.812Z,7.50
2023-11-20T19:08:18.013Z,7.80
2023-11-20T19:10:48.530Z,7.70
2023-11-20T19:13:16.768Z,7.40
2023-11-20T19:15:44.964Z,7.60
2023-11-20T19:18:14.562Z,7.70
2023-11-20T19:20:43.022Z,7.70
2023-11-20T19:23:12.343Z,8.10
2023-11-20T19:25:41.009Z,8.50
2023-11-20T19:28:09.512Z,8.10
2023-11-20T19:30:39.915Z,7.70
2023-11-20T19:33:11.352Z,8.50
2023-11-20T19:35:41.326Z,9.20
2023-11-20T19:38:13.628Z,8.30
2023-11-20T19:40:42.032Z,8.70
2023-11-20T19:43:10.511Z,8.60
2023-11-20T19:45:39.240Z,8.10
2023-11-20T19:48:07.556Z,8.80
2023-11-20T19:50:36.431Z,7.10
2023-11-20T19:53:07.441Z,7.80
2023-11-20T19:55:35.512Z,6.00
2023-11-20T19:58:04.941Z,8.00
2023-11-20T20:00:33.944Z,8.30
2023-11-20T20:03:02.106Z,7.30
2023-11-20T20:05:30.431Z,7.50
2023-11-20T20:08:00.323Z,7.10
2023-11-20T20:10:29.325Z,8.10
2023-11-20T20:12:57.729Z,7.40
2023-11-20T20:15:26.139Z,7.20
2023-11-20T20:17:59.087Z,7.60
2023-11-20T20:20:30.874Z,6.70
2023-11-20T20:23:01.568Z,7.80
2023-11-20T20:25:31.142Z,7.20
2023-11-20T20:27:59.643Z,6.10
2023-11-20T20:30:29.511Z,6.50
2023-11-20T20:32:57.944Z,6.80
2023-11-20T20:35:28.747Z,7.50
2023-11-20T20:37:56.781Z,7.70
2023-11-20T20:40:28.829Z,6.40
2023-11-20T20:43:01.209Z,7.50
2023-11-20T20:45:30.161Z,6.90
2023-11-20T20:47:58.577Z,6.90
2023-11-20T20:50:27.296Z,6.60
2023-11-20T20:52:55.274Z,6.70
2023-11-20T20:55:23.397Z,6.20
2023-11-20T20:57:54.088Z,5.50
2023-11-20T21:00:22.513Z,6.10
2023-11-20T21:02:51.447Z,5.20
2023-11-20T21:05:19.786Z,7.50
2023-11-20T21:07:47.930Z,5.80
2023-11-20T21:10:17.941Z,6.50
2023-11-20T21:12:46.074Z,6.30
2023-11-20T21:15:15.769Z,5.60
2023-11-20T21:17:46.235Z,6.10
2023-11-20T21:20:15.934Z,6.10
2023-11-20T21:22:45.943Z,5.90
2023-11-20T21:25:14.486Z,5.60
2023-11-20T21:27:44.049Z,5.20
2023-11-20T21:30:13.223Z,5.50
2023-11-20T21:32:42.629Z,5.80
2023-11-20T21:35:11.691Z,6.00
2023-11-20T21:37:39.923Z,5.30
2023-11-20T21:40:11.045Z,5.30
2023-11-20T21:42:39.327Z,4.80
2023-11-20T21:45:08.250Z,4.80
2023-11-20T21:47:36.554Z,5.10
2023-11-20T21:50:06.063Z,5.00
2023-11-20T21:52:34.499Z,4.40
2023-11-20T21:55:03.384Z,4.70
2023-11-20T21:57:31.492Z,4.10
2023-11-20T21:59:59.433Z,4.80
2023-11-20T22:02:27.414Z,5.00
2023-11-20T22:04:55.526Z,5.30
2023-11-20T22:07:24.257Z,4.70
2023-11-20T22:09:52.847Z,5.10
2023-11-20T22:12:20.972Z,5.20
2023-11-20T22:14:48.992Z,4.70
2023-11-20T22:17:16.926Z,5.00
2023-11-20T22:19:45.000Z,5.10
2023-11-20T22:22:15.726Z,4.90
2023-11-20T22:24:43.949Z,5.40
2023-11-20T22:27:12.725Z,4.90
2023-11-20T22:29:41.926Z,5.10
2023-11-20T22:32:10.042Z,4.70
2023-11-20T22:34:38.034Z,5.20
2023-11-20T22:37:06.101Z,4.60
2023-11-20T22:39:34.381Z,5.10
2023-11-20T22:42:02.326Z,4.80
2023-11-20T22:44:30.299Z,5.00
2023-11-20T22:46:58.287Z,4.90
2023-11-20T22:49:26.417Z,4.20
2023-11-20T22:51:54.397Z,4.80
2023-11-20T22:54:24.276Z,5.20
2023-11-20T22:56:52.321Z,5.50
2023-11-20T22:59:20.524Z,5.00
2023-11-20T23:01:48.544Z,5.10
2023-11-20T23:04:17.140Z,5.20
2023-11-20T23:06:45.397Z,5.10
2023-11-20T23:09:16.933Z,5.40
2023-11-20T23:11:45.034Z,5.70
2023-11-20T23:14:13.012Z,5.40
2023-11-20T23:16:41.036Z,5.50
2023-11-20T23:19:09.075Z,5.00
2023-11-20T23:21:37.079Z,6.10
2023-11-20T23:24:06.250Z,5.60
2023-11-20T23:26:34.869Z,6.20
2023-11-20T23:29:05.637Z,5.70
2023-11-20T23:31:37.984Z,5.00
2023-11-20T23:34:06.327Z,5.30
2023-11-20T23:36:34.557Z,5.50
2023-11-20T23:39:02.671Z,5.30
2023-11-20T23:41:30.596Z,4.80
2023-11-20T23:43:58.537Z,4.80
2023-11-20T23:46:28.471Z,5.30
2023-11-20T23:48:58.188Z,4.80
2023-11-20T23:51:26.526Z,4.30
2023-11-20T23:53:54.489Z,4.50
2023-11-20T23:56:22.503Z,4.20
2023-11-20T23:58:51.122Z,4.60
